PDTEASTERN OREGON RGNL AT PENDLETON
METARs for airports near PDT, sorted by distance:
N 0 nm 1496' KPDT 222353Z 31007KT 10SM CLR 04/02 A3051
NW 19 nm 644' KHRI 222353Z 36004KT 5SM BR OVC004 02/01 A3056
NE 33 nm 1194' KALW 230040Z 22003KT 1/4SM FG VV002 01/01 A3052
N 36 nm 410' KPSC 230036Z 36007KT 10SM SCT007 00/M01 A3060
NW 41 nm 394' KRLD 230035Z 34007KT 10SM CLR 01/00 A3059
SE 42 nm 2717' KLGD 222356Z 00000KT 10SM CLR 04/M01 A3048
SE 67 nm 3373' KBKE 222353Z 00000KT 10SM CLR 02/M03 A3045
E 69 nm 4126' KJSY 230035Z 10SM CLR M02/M07 A3047
S 77 nm 3702' KGCD 230035Z 00000KT 10SM CLR 05/M04 A3044
NE 86 nm 1442' KLWS 222356Z 00000KT 10SM OVC005 01/M01 A3055
NW 88 nm 1098' KYKM 222353Z 00000KT 10SM CLR 05/M03 A3053
N 93 nm 1188' KMWH 222352Z 03003KT 10SM OVC006 00/M01 A3056
NE 95 nm 2566' KPUW 222353Z 12003KT 10SM CLR 04/M01 A3050
W 97 nm 246' KDLS 230040Z 25003KT 10SM OVC009 04/01 A3056
TAFs for airports near PDT, sorted by distance:
N 0 nm 1496' KPDT TAF KPDT 222320Z 2300/2324 VRB05KT P6SM SCT200
  FM230600 33004KT 6SM BR FEW006 SCT200
  TEMPO 2306/2308 1SM BR BKN006
  FM230800 VRB03KT 2SM BR SCT006 SCT200
  FM231000 VRB02KT 1/2SM FZFG VV002
  FM231900 31003KT 6SM BR SCT250
NE 33 nm 1194' KALW TAF
  AMD KALW 230042Z 2301/2324 VRB03KT 1/4SM FG VV001
  FM230500 VRB03KT 1/4SM FZFG VV001
  FM232100 22003KT 2SM BR BKN006
N 36 nm 410' KPSC TAF KPSC 222320Z 2300/2324 36004KT P6SM SCT010
  FM230300 VRB03KT 4SM BR SCT002
  FM230600 VRB03KT 1/2SM FZFG BKN002
  FM231900 VRB02KT 4SM BR BKN005
  FM232100 35005KT 6SM BR BKN008
SE 67 nm 3373' KBKE TAF KBKE 222320Z 2300/2324 VRB03KT P6SM SKC
NE 86 nm 1442' KLWS TAF COR KLWS 222352Z 2300/2324 00000KT 6SM BR BKN005
  FM230500 VRB03KT 2SM BR OVC003
  FM231400 19004KT 5SM BR BKN009
  FM232100 25005KT P6SM SCT250
NW 88 nm 1098' KYKM TAF KYKM 222320Z 2300/2324 VRB03KT P6SM FEW250
  FM230800 28003KT 4SM BR SCT006
  FM231400 29003KT 1SM BR BKN006
  FM232000 VRB03KT 6SM BR BKN025
N 93 nm 1188' KMWH TAF COR KMWH 222346Z 2300/2324 VRB04KT 6SM BR OVC006
  FM230200 36004KT 1/2SM FZFG OVC003
  FM230700 VRB03KT 1/4SM FZFG VV002
  FM232000 00000KT 3SM BR OVC003
  FM232200 33004KT 5SM BR OVC008
NE 95 nm 2566' KPUW TAF COR KPUW 222348Z 2300/2324 VRB05KT P6SM SCT250
W 97 nm 246' KDLS TAF
  AMD KDLS 222344Z 2300/2324 VRB03KT P6SM OVC009
  FM230600 10003KT 3SM BR OVC008
  FM230900 10003KT 1SM BR OVC005
  FM231700 VRB03KT 3SM BR OVC008
  FM232100 VRB03KT 6SM BR BKN015

Shortcut to this page: http://wxbay.com.

Data may contain errors.